Time;durP1;ratioP1;P1;durP2;ratioP2;P2;SDS_P1;SDS_P2;PMS_P1;PMS_P2;Temp;Humidity;BMP_temperature;BMP_pressure;BME280_temperature;BME280_humidity;BME280_pressure;Samples;Min_cycle;Max_cycle;Signal;HPM_P1;HPM_P2
2023/02/01 00:01:59;;;;;;;6.25;1.88;;;;;;;;;;5016431;28;20042;-63
2023/02/01 00:04:26;;;;;;;4.30;1.60;;;;;;;;;;5004051;28;20037;-65
2023/02/01 00:06:53;;;;;;;4.65;1.50;;;;;;;;;;5016283;28;20041;-67
2023/02/01 00:09:20;;;;;;;9.07;2.03;;;;;;;;;;5005268;28;20030;-65
2023/02/01 00:11:50;;;;;;;5.13;2.22;;;;;;;;;;5007157;28;20043;-66
2023/02/01 00:14:39;;;;;;;4.50;2.08;;;;;;;;;;5002887;28;20050;-66
2023/02/01 00:17:06;;;;;;;10.07;1.95;;;;;;;;;;4979578;28;20077;-65
2023/02/01 00:19:33;;;;;;;5.05;2.25;;;;;;;;;;4981906;28;20692;-66
2023/02/01 00:22:20;;;;;;;9.88;2.33;;;;;;;;;;4933562;28;20619;-66
2023/02/01 00:24:49;;;;;;;5.95;2.40;;;;;;;;;;4949222;28;20411;-65
2023/02/01 00:27:20;;;;;;;6.05;2.17;;;;;;;;;;4938763;28;20049;-66
2023/02/01 00:29:46;;;;;;;5.55;2.17;;;;;;;;;;4881613;29;20055;-67
2023/02/01 00:32:33;;;;;;;5.57;2.35;;;;;;;;;;4899692;29;20401;-66
2023/02/01 00:34:59;;;;;;;7.50;2.10;;;;;;;;;;4885587;29;20044;-67
2023/02/01 00:37:26;;;;;;;7.15;3.17;;;;;;;;;;4884224;29;20502;-64
2023/02/01 00:39:55;;;;;;;6.47;2.40;;;;;;;;;;4899504;29;20032;-64
2023/02/01 00:42:22;;;;;;;7.28;2.50;;;;;;;;;;4894889;29;20143;-64
2023/02/01 00:44:48;;;;;;;7.13;2.63;;;;;;;;;;4899865;29;20141;-65
2023/02/01 00:47:15;;;;;;;9.95;2.83;;;;;;;;;;4902763;29;20130;-65
2023/02/01 00:49:42;;;;;;;6.47;3.05;;;;;;;;;;4924745;29;20153;-65
2023/02/01 00:52:08;;;;;;;6.63;2.97;;;;;;;;;;4919168;29;20115;-66
2023/02/01 00:54:36;;;;;;;6.93;2.95;;;;;;;;;;4943379;29;20631;-66
2023/02/01 00:57:04;;;;;;;11.73;3.75;;;;;;;;;;4943456;29;20043;-66
2023/02/01 00:59:31;;;;;;;5.68;2.92;;;;;;;;;;4944591;28;20043;-65
2023/02/01 01:01:59;;;;;;;11.40;2.97;;;;;;;;;;4994622;28;20038;-68
2023/02/01 01:04:25;;;;;;;12.05;4.60;;;;;;;;;;4994713;28;20045;-63
2023/02/01 01:06:56;;;;;;;5.95;2.85;;;;;;;;;;4991466;28;20038;-65
2023/02/01 01:09:43;;;;;;;7.25;2.90;;;;;;;;;;4965706;28;20046;-66
2023/02/01 01:12:10;;;;;;;7.80;2.85;;;;;;;;;;4965684;28;20053;-66
2023/02/01 01:14:37;;;;;;;12.45;3.38;;;;;;;;;;4957245;28;20046;-67
2023/02/01 01:17:04;;;;;;;9.02;3.45;;;;;;;;;;4973486;28;20096;-66
2023/02/01 01:19:30;;;;;;;9.00;3.50;;;;;;;;;;4963027;28;20054;-65
2023/02/01 01:21:57;;;;;;;6.05;3.08;;;;;;;;;;4966303;28;20097;-65
2023/02/01 01:24:23;;;;;;;6.28;3.25;;;;;;;;;;4953197;28;20051;-66
2023/02/01 01:26:50;;;;;;;8.90;3.72;;;;;;;;;;4950138;28;20043;-66
2023/02/01 01:29:17;;;;;;;9.80;3.97;;;;;;;;;;4941614;28;20039;-65
2023/02/01 01:31:43;;;;;;;8.80;3.50;;;;;;;;;;4961507;28;20035;-66
2023/02/01 01:34:10;;;;;;;8.30;3.72;;;;;;;;;;4946431;28;20137;-66
2023/02/01 01:36:37;;;;;;;8.75;3.80;;;;;;;;;;4952259;28;20149;-66
2023/02/01 01:39:03;;;;;;;7.30;3.50;;;;;;;;;;4964321;28;20071;-66
2023/02/01 01:41:31;;;;;;;7.53;3.38;;;;;;;;;;4979793;28;20034;-67
2023/02/01 01:44:02;;;;;;;7.32;3.63;;;;;;;;;;4988462;28;20038;-67
2023/02/01 01:46:40;;;;;;;9.60;3.67;;;;;;;;;;5003726;28;20070;-66
2023/02/01 01:49:13;;;;;;;8.68;4.00;;;;;;;;;;5010485;28;20075;-65
2023/02/01 01:51:50;;;;;;;7.20;3.28;;;;;;;;;;4982437;28;20113;-64
2023/02/01 01:54:22;;;;;;;12.40;4.35;;;;;;;;;;4984806;28;20058;-65
2023/02/01 01:56:52;;;;;;;7.30;3.42;;;;;;;;;;4987217;28;20202;-65
2023/02/01 01:59:20;;;;;;;14.70;4.03;;;;;;;;;;4968664;28;20507;-65
2023/02/01 02:01:47;;;;;;;11.82;4.15;;;;;;;;;;4984350;28;20129;-64
2023/02/01 02:04:15;;;;;;;11.45;3.50;;;;;;;;;;4985851;28;20042;-65
2023/02/01 02:06:45;;;;;;;10.48;4.15;;;;;;;;;;4985029;28;20101;-64
2023/02/01 02:09:13;;;;;;;8.52;3.83;;;;;;;;;;4986365;28;20465;-64
2023/02/01 02:11:39;;;;;;;11.32;3.90;;;;;;;;;;4984424;28;20039;-65
2023/02/01 02:14:07;;;;;;;7.78;3.83;;;;;;;;;;4991401;28;20042;-65
2023/02/01 02:16:41;;;;;;;9.63;4.00;;;;;;;;;;4985104;28;20118;-66
2023/02/01 02:19:26;;;;;;;15.25;4.10;;;;;;;;;;4985796;28;20051;-65
2023/02/01 02:22:11;;;;;;;8.10;3.85;;;;;;;;;;4978518;28;20042;-66
2023/02/01 02:24:57;;;;;;;9.30;3.28;;;;;;;;;;5004270;28;21170;-66
2023/02/01 02:27:28;;;;;;;7.57;3.63;;;;;;;;;;5000875;28;20042;-67
2023/02/01 02:29:55;;;;;;;13.43;4.15;;;;;;;;;;5000991;28;20232;-65
2023/02/01 02:32:24;;;;;;;7.70;3.70;;;;;;;;;;5003549;28;20034;-67
2023/02/01 02:34:55;;;;;;;11.20;4.20;;;;;;;;;;5002396;28;20538;-66
2023/02/01 02:37:55;;;;;;;11.77;3.92;;;;;;;;;;4989133;28;20042;-66
2023/02/01 02:40:26;;;;;;;7.43;3.35;;;;;;;;;;4980394;28;20035;-68
2023/02/01 02:49:00;;;;;;;10.18;4.13;;;;;;;;;;4956877;28;20546;-67
2023/02/01 03:05:28;;;;;;;12.88;3.85;;;;;;;;;;4972141;28;20057;-68
2023/02/01 03:08:02;;;;;;;9.27;4.35;;;;;;;;;;4977310;28;20037;-65
2023/02/01 03:10:57;;;;;;;8.77;4.00;;;;;;;;;;4964624;28;20070;-65
2023/02/01 03:13:26;;;;;;;7.03;3.80;;;;;;;;;;4962658;28;20062;-66
2023/02/01 03:16:02;;;;;;;8.57;3.80;;;;;;;;;;4992308;28;20026;-66
2023/02/01 03:18:39;;;;;;;7.40;3.55;;;;;;;;;;5000044;28;20533;-67
2023/02/01 03:21:09;;;;;;;8.65;3.60;;;;;;;;;;5001689;28;21014;-67
2023/02/01 03:23:38;;;;;;;9.55;4.25;;;;;;;;;;5001782;28;20042;-64
2023/02/01 03:26:06;;;;;;;8.65;4.00;;;;;;;;;;5004689;28;20422;-66
2023/02/01 03:28:34;;;;;;;8.55;3.92;;;;;;;;;;4986614;28;20040;-67
2023/02/01 03:31:21;;;;;;;7.68;3.40;;;;;;;;;;4962291;28;20047;-66
2023/02/01 03:33:47;;;;;;;14.73;3.72;;;;;;;;;;4940635;28;20034;-65
2023/02/01 03:36:22;;;;;;;10.35;3.75;;;;;;;;;;4964000;28;20046;-66
2023/02/01 03:38:56;;;;;;;8.52;3.53;;;;;;;;;;4960776;28;20051;-65
2023/02/01 03:41:43;;;;;;;8.20;3.50;;;;;;;;;;4961659;28;20054;-65
2023/02/01 03:44:19;;;;;;;7.05;3.30;;;;;;;;;;4958750;28;20042;-63
2023/02/01 03:46:45;;;;;;;7.80;3.88;;;;;;;;;;4958758;28;20593;-66
2023/02/01 03:49:14;;;;;;;6.82;3.65;;;;;;;;;;4977426;28;20070;-64
2023/02/01 03:51:41;;;;;;;8.98;3.90;;;;;;;;;;4975972;28;20053;-63
2023/02/01 03:54:09;;;;;;;8.63;3.63;;;;;;;;;;4980490;28;20034;-64
2023/02/01 03:56:38;;;;;;;11.27;3.85;;;;;;;;;;4996463;28;20034;-65
2023/02/01 03:59:04;;;;;;;10.50;3.97;;;;;;;;;;4995828;28;20061;-65
2023/02/01 04:01:31;;;;;;;7.95;3.20;;;;;;;;;;4996202;28;20448;-63
2023/02/01 04:03:59;;;;;;;7.63;4.15;;;;;;;;;;4993163;28;20041;-64
2023/02/01 04:06:31;;;;;;;7.78;3.35;;;;;;;;;;4993649;28;20066;-66
2023/02/01 04:08:58;;;;;;;10.30;3.80;;;;;;;;;;5012518;28;20037;-66
2023/02/01 04:11:24;;;;;;;7.68;3.47;;;;;;;;;;5015110;28;20180;-65
2023/02/01 04:13:51;;;;;;;11.98;3.63;;;;;;;;;;5018994;28;21016;-66
2023/02/01 04:16:18;;;;;;;7.25;3.75;;;;;;;;;;5012478;28;20033;-66
2023/02/01 04:18:44;;;;;;;9.15;3.50;;;;;;;;;;5014051;28;20131;-66
2023/02/01 04:21:11;;;;;;;8.15;3.33;;;;;;;;;;5015992;28;20095;-67
2023/02/01 04:23:38;;;;;;;10.50;3.17;;;;;;;;;;5017623;28;20163;-66
2023/02/01 04:26:05;;;;;;;6.05;3.10;;;;;;;;;;5019765;28;20097;-66
2023/02/01 04:28:32;;;;;;;7.68;3.63;;;;;;;;;;5018089;28;20072;-65
2023/02/01 04:30:58;;;;;;;5.05;3.17;;;;;;;;;;5019608;28;20108;-65
2023/02/01 04:33:25;;;;;;;7.65;3.80;;;;;;;;;;5017061;28;20045;-66
2023/02/01 04:35:52;;;;;;;11.20;4.18;;;;;;;;;;5021803;28;20443;-66
2023/02/01 04:38:19;;;;;;;5.50;2.85;;;;;;;;;;5016832;28;20123;-67
2023/02/01 04:40:48;;;;;;;6.63;3.22;;;;;;;;;;5013050;28;20038;-65
2023/02/01 04:43:14;;;;;;;6.47;3.53;;;;;;;;;;5013276;28;20509;-66
2023/02/01 04:45:41;;;;;;;7.07;3.17;;;;;;;;;;5012240;28;20042;-64
2023/02/01 04:48:08;;;;;;;8.43;3.53;;;;;;;;;;5012619;28;20037;-65
2023/02/01 04:50:34;;;;;;;8.75;2.90;;;;;;;;;;5012842;28;21958;-64
2023/02/01 04:53:01;;;;;;;6.60;2.72;;;;;;;;;;5012251;28;20034;-65
2023/02/01 04:55:27;;;;;;;7.18;3.50;;;;;;;;;;5006868;28;20037;-65
2023/02/01 04:57:55;;;;;;;5.65;2.90;;;;;;;;;;5009341;28;20118;-66
2023/02/01 05:00:21;;;;;;;6.60;3.35;;;;;;;;;;5006086;28;20045;-66
2023/02/01 05:02:48;;;;;;;8.15;3.20;;;;;;;;;;5009704;28;20048;-67
2023/02/01 05:05:15;;;;;;;7.05;3.53;;;;;;;;;;5006615;28;21017;-65
2023/02/01 05:07:41;;;;;;;5.90;3.28;;;;;;;;;;5006048;28;20053;-66
2023/02/01 05:10:08;;;;;;;9.02;3.15;;;;;;;;;;5010338;28;20034;-66
2023/02/01 05:15:20;;;;;;;6.32;2.72;;;;;;;;;;5006316;28;20067;-66
2023/02/01 05:17:47;;;;;;;6.88;2.95;;;;;;;;;;5005806;28;20050;-66
2023/02/01 05:20:13;;;;;;;7.75;3.60;;;;;;;;;;5007828;28;20046;-65
2023/02/01 05:22:42;;;;;;;4.93;2.85;;;;;;;;;;5004408;28;20129;-65
2023/02/01 05:25:08;;;;;;;6.22;3.05;;;;;;;;;;5009356;28;20030;-65
2023/02/01 05:27:35;;;;;;;6.15;2.88;;;;;;;;;;5011993;28;20065;-66
2023/02/01 05:30:02;;;;;;;7.13;3.33;;;;;;;;;;5012365;28;20033;-66
2023/02/01 05:32:29;;;;;;;6.10;2.72;;;;;;;;;;5013697;28;20034;-66
2023/02/01 05:34:55;;;;;;;8.80;3.83;;;;;;;;;;5016272;28;20129;-65
2023/02/01 05:37:23;;;;;;;9.50;3.28;;;;;;;;;;5013365;28;20045;-66
2023/02/01 05:39:49;;;;;;;7.55;3.88;;;;;;;;;;5012188;28;20608;-66
2023/02/01 05:42:16;;;;;;;5.00;3.15;;;;;;;;;;5011095;28;20049;-66
2023/02/01 05:44:43;;;;;;;7.20;3.10;;;;;;;;;;4995728;28;20037;-66
2023/02/01 05:47:09;;;;;;;6.13;3.40;;;;;;;;;;5005919;28;20508;-66
2023/02/01 05:49:36;;;;;;;5.63;3.17;;;;;;;;;;5006616;28;20047;-66
2023/02/01 05:52:03;;;;;;;7.25;3.45;;;;;;;;;;5007233;28;20072;-65
2023/02/01 05:54:30;;;;;;;5.90;2.85;;;;;;;;;;5006185;28;20117;-66
2023/02/01 05:56:56;;;;;;;6.50;3.00;;;;;;;;;;5005565;28;20033;-66
2023/02/01 05:59:24;;;;;;;10.10;4.05;;;;;;;;;;5005102;28;20060;-64
2023/02/01 06:01:51;;;;;;;7.90;3.65;;;;;;;;;;5003916;28;20425;-65
2023/02/01 06:04:17;;;;;;;9.15;4.05;;;;;;;;;;5006148;28;21409;-66
2023/02/01 06:06:44;;;;;;;8.43;3.95;;;;;;;;;;5006925;28;20056;-66
2023/02/01 06:09:11;;;;;;;8.70;4.05;;;;;;;;;;5008555;28;20044;-65
2023/02/01 06:11:37;;;;;;;13.82;4.05;;;;;;;;;;5006558;28;20446;-64
2023/02/01 06:14:04;;;;;;;7.93;3.95;;;;;;;;;;5005345;28;20064;-64
2023/02/01 06:16:31;;;;;;;11.38;4.95;;;;;;;;;;5003028;28;20124;-65
2023/02/01 06:18:58;;;;;;;15.48;4.20;;;;;;;;;;5004952;28;20072;-64
2023/02/01 06:21:24;;;;;;;10.68;4.78;;;;;;;;;;5003479;28;20049;-64
2023/02/01 06:23:54;;;;;;;10.50;4.45;;;;;;;;;;5008329;28;20046;-65
2023/02/01 06:26:21;;;;;;;8.00;4.72;;;;;;;;;;5007718;28;20168;-65
2023/02/01 06:28:47;;;;;;;8.95;4.60;;;;;;;;;;5005966;28;20026;-65
2023/02/01 06:31:14;;;;;;;10.27;4.35;;;;;;;;;;5006918;28;20683;-65
2023/02/01 06:33:41;;;;;;;10.80;4.78;;;;;;;;;;5006266;28;20048;-65
2023/02/01 06:36:08;;;;;;;9.95;5.35;;;;;;;;;;5009056;28;20045;-65
2023/02/01 06:38:36;;;;;;;13.98;5.50;;;;;;;;;;5008308;28;20384;-66
2023/02/01 06:41:03;;;;;;;9.55;4.60;;;;;;;;;;5021535;28;20046;-65
2023/02/01 06:43:30;;;;;;;11.40;4.45;;;;;;;;;;5008921;28;20041;-65
2023/02/01 06:46:01;;;;;;;11.43;5.22;;;;;;;;;;5027819;28;20040;-64
2023/02/01 06:48:27;;;;;;;13.43;5.28;;;;;;;;;;5017607;28;20044;-65
2023/02/01 06:50:54;;;;;;;7.85;4.95;;;;;;;;;;5012602;28;20033;-63
2023/02/01 06:53:21;;;;;;;8.75;5.65;;;;;;;;;;5001318;28;20038;-63
2023/02/01 06:55:54;;;;;;;9.50;5.63;;;;;;;;;;5004473;28;20042;-64
2023/02/01 06:58:21;;;;;;;13.30;6.25;;;;;;;;;;5003109;28;20133;-65
2023/02/01 07:00:48;;;;;;;10.85;5.70;;;;;;;;;;5003276;28;20387;-63
2023/02/01 07:03:15;;;;;;;9.73;4.80;;;;;;;;;;5003509;28;20098;-65
2023/02/01 07:05:41;;;;;;;9.68;4.50;;;;;;;;;;5005247;28;20129;-65
2023/02/01 07:08:08;;;;;;;13.57;4.75;;;;;;;;;;5005153;28;20050;-65
2023/02/01 07:10:55;;;;;;;20.63;5.90;;;;;;;;;;5018857;28;20530;-65
2023/02/01 07:13:22;;;;;;;9.98;5.25;;;;;;;;;;5000424;28;20045;-65
2023/02/01 07:15:49;;;;;;;11.60;5.63;;;;;;;;;;5003554;28;20080;-64
2023/02/01 07:18:16;;;;;;;8.98;4.75;;;;;;;;;;5021685;28;20054;-65
2023/02/01 07:20:43;;;;;;;9.10;5.55;;;;;;;;;;5018177;28;20042;-66
2023/02/01 07:23:11;;;;;;;7.72;4.65;;;;;;;;;;5022327;28;20038;-65
2023/02/01 07:25:37;;;;;;;13.30;5.45;;;;;;;;;;5006616;28;20047;-65
2023/02/01 07:28:04;;;;;;;7.75;4.50;;;;;;;;;;5022620;28;20063;-65
2023/02/01 07:30:31;;;;;;;10.60;5.50;;;;;;;;;;5023641;28;20118;-66
2023/02/01 07:33:00;;;;;;;9.57;5.20;;;;;;;;;;5025059;28;20096;-66
2023/02/01 07:35:28;;;;;;;11.95;5.88;;;;;;;;;;5024136;28;20034;-66
2023/02/01 07:37:54;;;;;;;9.75;4.72;;;;;;;;;;5023093;28;20086;-66
2023/02/01 07:40:28;;;;;;;9.38;4.60;;;;;;;;;;5022485;28;20083;-66
2023/02/01 07:42:57;;;;;;;8.05;4.50;;;;;;;;;;5021840;28;20041;-65
2023/02/01 07:45:24;;;;;;;13.10;6.10;;;;;;;;;;5022140;28;20041;-65
2023/02/01 07:47:53;;;;;;;12.90;5.28;;;;;;;;;;5013635;28;20042;-66
2023/02/01 07:50:20;;;;;;;8.82;5.03;;;;;;;;;;4986042;28;20907;-66
2023/02/01 07:52:46;;;;;;;8.88;4.40;;;;;;;;;;4987691;28;20068;-65
2023/02/01 07:55:13;;;;;;;10.88;4.78;;;;;;;;;;4985534;28;20442;-65
2023/02/01 07:57:39;;;;;;;14.65;6.60;;;;;;;;;;4984544;28;20046;-65
2023/02/01 08:02:51;;;;;;;8.48;4.93;;;;;;;;;;4973674;28;20057;-66
2023/02/01 08:05:18;;;;;;;7.75;4.88;;;;;;;;;;4975534;28;20039;-66
2023/02/01 08:07:44;;;;;;;8.18;4.38;;;;;;;;;;4971622;28;20752;-65
2023/02/01 08:10:11;;;;;;;8.02;4.50;;;;;;;;;;4992000;28;20091;-64
2023/02/01 08:12:38;;;;;;;8.50;3.92;;;;;;;;;;4988254;28;20108;-65
2023/02/01 08:15:05;;;;;;;9.68;4.53;;;;;;;;;;4987606;28;20060;-65
2023/02/01 08:17:31;;;;;;;7.93;4.80;;;;;;;;;;4984692;28;20042;-64
2023/02/01 08:19:58;;;;;;;9.20;5.30;;;;;;;;;;4985846;28;20049;-65
2023/02/01 08:22:25;;;;;;;9.52;5.82;;;;;;;;;;4980574;28;20518;-65
2023/02/01 08:25:00;;;;;;;9.27;5.28;;;;;;;;;;4985178;28;20138;-66
2023/02/01 08:27:28;;;;;;;11.30;5.35;;;;;;;;;;4981643;28;20072;-65
2023/02/01 08:29:54;;;;;;;12.25;5.28;;;;;;;;;;4983434;28;20191;-65
2023/02/01 08:32:21;;;;;;;8.70;5.18;;;;;;;;;;4983873;28;20612;-65
2023/02/01 08:34:47;;;;;;;8.48;4.97;;;;;;;;;;4983352;28;20047;-65
2023/02/01 08:37:14;;;;;;;9.25;4.82;;;;;;;;;;4983502;28;20511;-65
2023/02/01 08:39:43;;;;;;;8.75;5.07;;;;;;;;;;4982288;28;20073;-65
2023/02/01 08:44:54;;;;;;;9.35;5.10;;;;;;;;;;4981652;28;20290;-64
2023/02/01 08:47:21;;;;;;;9.13;5.05;;;;;;;;;;4981553;28;20037;-65
2023/02/01 08:49:48;;;;;;;7.43;4.40;;;;;;;;;;4984803;28;20125;-65
2023/02/01 08:52:14;;;;;;;14.52;6.15;;;;;;;;;;4982759;28;20078;-66
2023/02/01 08:54:41;;;;;;;13.02;5.22;;;;;;;;;;4981510;28;20120;-65
2023/02/01 08:57:09;;;;;;;6.97;4.88;;;;;;;;;;4983394;28;20133;-65
2023/02/01 08:59:36;;;;;;;9.30;4.97;;;;;;;;;;4987070;28;20183;-64
2023/02/01 09:02:02;;;;;;;11.00;5.43;;;;;;;;;;4993313;28;20157;-65
2023/02/01 09:04:29;;;;;;;10.45;5.55;;;;;;;;;;4999182;28;20039;-65
2023/02/01 09:06:55;;;;;;;8.82;4.40;;;;;;;;;;4991505;28;20065;-66
2023/02/01 09:09:23;;;;;;;10.02;4.72;;;;;;;;;;4991777;28;20057;-65
2023/02/01 09:11:50;;;;;;;12.25;5.13;;;;;;;;;;4991207;28;20042;-64
2023/02/01 09:14:17;;;;;;;10.23;5.80;;;;;;;;;;4988379;28;20042;-64
2023/02/01 09:16:43;;;;;;;10.18;4.88;;;;;;;;;;4984547;28;20034;-65
2023/02/01 09:19:10;;;;;;;10.98;4.63;;;;;;;;;;4984991;28;20553;-66
2023/02/01 09:21:37;;;;;;;8.25;4.60;;;;;;;;;;4982166;28;20116;-64
2023/02/01 09:24:04;;;;;;;8.60;4.75;;;;;;;;;;5002439;28;21018;-64
2023/02/01 09:26:30;;;;;;;8.60;4.60;;;;;;;;;;5005492;28;20088;-67
2023/02/01 09:28:57;;;;;;;10.95;5.18;;;;;;;;;;5006186;28;20416;-65
2023/02/01 09:31:26;;;;;;;10.68;5.05;;;;;;;;;;5003509;28;20144;-66
2023/02/01 09:33:53;;;;;;;8.52;4.35;;;;;;;;;;5002741;28;20508;-66
2023/02/01 09:36:19;;;;;;;8.00;4.35;;;;;;;;;;5002908;28;20046;-67
2023/02/01 09:38:48;;;;;;;9.02;4.80;;;;;;;;;;5002058;28;21767;-65
2023/02/01 09:41:40;;;;;;;14.32;5.75;;;;;;;;;;5002023;28;20386;-66
2023/02/01 09:44:11;;;;;;;7.45;3.95;;;;;;;;;;4971876;28;20065;-67
2023/02/01 09:46:37;;;;;;;9.02;4.63;;;;;;;;;;4991765;28;20075;-66
2023/02/01 09:49:12;;;;;;;8.52;4.82;;;;;;;;;;5003833;28;20038;-68
2023/02/01 09:51:40;;;;;;;10.35;5.15;;;;;;;;;;5004227;28;20497;-67
2023/02/01 09:54:13;;;;;;;9.55;4.90;;;;;;;;;;5004882;28;20065;-66
2023/02/01 09:56:43;;;;;;;10.05;4.28;;;;;;;;;;5003521;28;20116;-67
2023/02/01 09:59:12;;;;;;;12.70;4.80;;;;;;;;;;5003504;28;20111;-66
2023/02/01 10:01:39;;;;;;;11.38;4.60;;;;;;;;;;5005342;28;20049;-66
2023/02/01 10:04:08;;;;;;;7.78;4.60;;;;;;;;;;5022195;28;20037;-66
2023/02/01 10:06:54;;;;;;;12.55;5.15;;;;;;;;;;5001900;28;20091;-64
2023/02/01 10:09:31;;;;;;;8.52;4.10;;;;;;;;;;5022074;28;20049;-67
2023/02/01 10:12:05;;;;;;;8.23;4.10;;;;;;;;;;5022960;28;20037;-66
2023/02/01 10:14:50;;;;;;;7.85;4.60;;;;;;;;;;5011190;28;20050;-66
2023/02/01 10:17:20;;;;;;;7.57;4.57;;;;;;;;;;5006014;28;20044;-66
2023/02/01 10:19:56;;;;;;;6.22;3.22;;;;;;;;;;5023295;28;20816;-66
2023/02/01 10:22:46;;;;;;;12.02;4.47;;;;;;;;;;5021922;28;20057;-66
2023/02/01 10:25:13;;;;;;;13.65;4.20;;;;;;;;;;5017615;28;20077;-67
2023/02/01 10:27:40;;;;;;;10.00;3.90;;;;;;;;;;5029034;28;20041;-66
2023/02/01 10:30:16;;;;;;;7.70;3.50;;;;;;;;;;5035546;28;20041;-66
2023/02/01 10:32:43;;;;;;;8.50;3.58;;;;;;;;;;5036939;28;20068;-66
2023/02/01 10:35:18;;;;;;;8.27;4.07;;;;;;;;;;5034774;28;20718;-67
2023/02/01 10:37:47;;;;;;;5.93;3.83;;;;;;;;;;5030237;28;20076;-66
2023/02/01 10:40:25;;;;;;;7.13;4.10;;;;;;;;;;5031931;28;20033;-67
2023/02/01 10:43:10;;;;;;;6.55;3.67;;;;;;;;;;5019740;28;20049;-65
2023/02/01 10:45:39;;;;;;;8.77;3.65;;;;;;;;;;5020586;28;20037;-65
2023/02/01 10:48:11;;;;;;;6.70;4.50;;;;;;;;;;5007118;28;20106;-66
2023/02/01 10:50:41;;;;;;;6.32;3.88;;;;;;;;;;5029603;28;21875;-65
2023/02/01 10:53:13;;;;;;;10.95;4.85;;;;;;;;;;5024474;28;20040;-67
2023/02/01 10:55:45;;;;;;;5.85;3.53;;;;;;;;;;5010337;28;20589;-66
2023/02/01 10:58:33;;;;;;;5.82;3.60;;;;;;;;;;5045882;28;20048;-66
2023/02/01 11:01:00;;;;;;;5.75;3.65;;;;;;;;;;5033857;28;20072;-65
2023/02/01 11:03:34;;;;;;;7.45;3.63;;;;;;;;;;5026873;28;20139;-66
2023/02/01 11:06:02;;;;;;;7.78;3.88;;;;;;;;;;5044581;28;20075;-66
2023/02/01 11:08:29;;;;;;;7.88;4.10;;;;;;;;;;5028122;28;20059;-65
2023/02/01 11:11:01;;;;;;;9.30;4.57;;;;;;;;;;5047645;28;20628;-65
2023/02/01 11:13:37;;;;;;;11.00;4.10;;;;;;;;;;5047648;28;20048;-65
2023/02/01 11:16:04;;;;;;;6.38;3.15;;;;;;;;;;5046410;28;20108;-67
2023/02/01 11:18:35;;;;;;;9.73;3.45;;;;;;;;;;5044366;28;20064;-67
2023/02/01 11:21:03;;;;;;;8.13;3.70;;;;;;;;;;5044894;28;20033;-67
2023/02/01 11:23:36;;;;;;;6.57;3.35;;;;;;;;;;5048856;28;20041;-66
2023/02/01 11:26:11;;;;;;;6.03;3.53;;;;;;;;;;5049298;28;20057;-66
2023/02/01 11:28:39;;;;;;;4.70;2.65;;;;;;;;;;5030662;28;20837;-68
2023/02/01 11:31:09;;;;;;;7.15;3.20;;;;;;;;;;5002015;28;20045;-67
2023/02/01 11:33:38;;;;;;;7.05;3.03;;;;;;;;;;4988777;28;20057;-67
2023/02/01 11:36:09;;;;;;;19.23;4.45;;;;;;;;;;4990109;28;20065;-67
2023/02/01 11:38:36;;;;;;;4.20;2.85;;;;;;;;;;4958490;28;20075;-67
2023/02/01 11:41:20;;;;;;;6.18;3.00;;;;;;;;;;4959198;28;20074;-68
2023/02/01 11:44:01;;;;;;;6.43;3.65;;;;;;;;;;4946444;28;20054;-66
2023/02/01 11:46:32;;;;;;;4.95;3.47;;;;;;;;;;4942358;28;20045;-66
2023/02/01 11:49:15;;;;;;;6.20;2.45;;;;;;;;;;4936888;28;20134;-68
2023/02/01 11:51:48;;;;;;;9.02;4.15;;;;;;;;;;4933640;28;21130;-66
2023/02/01 11:54:15;;;;;;;5.45;3.13;;;;;;;;;;4896022;29;20524;-66
2023/02/01 11:56:47;;;;;;;5.63;3.13;;;;;;;;;;4945707;28;20066;-67
2023/02/01 11:59:35;;;;;;;6.97;3.53;;;;;;;;;;4955300;28;20071;-67
2023/02/01 12:02:11;;;;;;;6.18;3.53;;;;;;;;;;4952531;28;20289;-66
2023/02/01 12:05:00;;;;;;;5.22;2.75;;;;;;;;;;4961165;28;20068;-67
2023/02/01 12:07:26;;;;;;;4.75;2.65;;;;;;;;;;4947791;28;20142;-66
2023/02/01 12:10:03;;;;;;;4.32;2.92;;;;;;;;;;4961301;28;20039;-66
2023/02/01 12:12:39;;;;;;;3.92;2.08;;;;;;;;;;4960486;28;20090;-66
2023/02/01 12:15:06;;;;;;;4.30;2.35;;;;;;;;;;4962928;28;20042;-67
2023/02/01 12:17:38;;;;;;;5.40;2.88;;;;;;;;;;4912651;29;20132;-65
2023/02/01 12:20:34;;;;;;;5.32;2.80;;;;;;;;;;4906420;29;20106;-68
2023/02/01 12:23:04;;;;;;;8.75;3.15;;;;;;;;;;4829828;28;20062;-67
2023/02/01 12:25:49;;;;;;;5.90;3.08;;;;;;;;;;4940702;28;20043;-66
2023/02/01 12:28:36;;;;;;;6.22;3.33;;;;;;;;;;4936654;28;20055;-67
2023/02/01 12:31:23;;;;;;;5.88;3.42;;;;;;;;;;4939165;29;20039;-68
2023/02/01 12:34:13;;;;;;;8.00;4.05;;;;;;;;;;4913658;29;20067;-67
2023/02/01 12:37:26;;;;;;;8.40;3.38;;;;;;;;;;4848329;29;20036;-65
2023/02/01 12:40:01;;;;;;;6.18;3.22;;;;;;;;;;4836619;29;21664;-64
2023/02/01 12:42:44;;;;;;;5.70;2.80;;;;;;;;;;4849394;29;20044;-68
2023/02/01 12:45:46;;;;;;;5.35;3.03;;;;;;;;;;4822086;29;20042;-67
2023/02/01 12:48:23;;;;;;;6.70;4.30;;;;;;;;;;4842804;29;20044;-67
2023/02/01 12:50:54;;;;;;;7.25;4.28;;;;;;;;;;4840097;29;20052;-66
2023/02/01 12:53:39;;;;;;;6.15;4.22;;;;;;;;;;4855208;29;20721;-67
2023/02/01 12:56:11;;;;;;;7.80;4.18;;;;;;;;;;4854853;29;20060;-67
2023/02/01 12:58:38;;;;;;;8.07;4.57;;;;;;;;;;4853311;29;20057;-67
2023/02/01 13:01:27;;;;;;;7.28;4.85;;;;;;;;;;4859139;29;20072;-68
2023/02/01 13:03:57;;;;;;;8.02;3.92;;;;;;;;;;4832515;29;20082;-67
2023/02/01 13:06:35;;;;;;;8.05;4.93;;;;;;;;;;4830865;29;20095;-68
2023/02/01 13:09:11;;;;;;;9.00;5.13;;;;;;;;;;4854796;29;20071;-67
2023/02/01 13:11:39;;;;;;;8.95;5.22;;;;;;;;;;4860390;29;20048;-65
2023/02/01 13:14:17;;;;;;;8.50;4.90;;;;;;;;;;4882750;29;20973;-66
2023/02/01 13:16:46;;;;;;;12.60;7.07;;;;;;;;;;4919967;28;20078;-65
2023/02/01 13:19:21;;;;;;;16.90;5.28;;;;;;;;;;4955952;28;20051;-67
2023/02/01 13:21:50;;;;;;;13.38;7.32;;;;;;;;;;4940368;28;20043;-67
2023/02/01 13:24:37;;;;;;;11.13;6.68;;;;;;;;;;4967768;28;20107;-67
2023/02/01 13:27:05;;;;;;;6.80;4.53;;;;;;;;;;4966232;28;20113;-67
2023/02/01 13:29:34;;;;;;;12.02;5.82;;;;;;;;;;4955488;28;20046;-66
2023/02/01 13:32:08;;;;;;;10.98;5.10;;;;;;;;;;4952268;28;20046;-67
2023/02/01 13:34:34;;;;;;;11.15;5.75;;;;;;;;;;4950812;28;20035;-65
2023/02/01 13:37:01;;;;;;;6.88;4.95;;;;;;;;;;4985786;28;20049;-64
2023/02/01 13:39:30;;;;;;;15.38;5.93;;;;;;;;;;4969924;28;20418;-66
2023/02/01 13:42:03;;;;;;;8.77;6.10;;;;;;;;;;5023813;28;20474;-65
2023/02/01 13:44:32;;;;;;;6.40;3.75;;;;;;;;;;5026357;28;20039;-67
2023/02/01 13:47:01;;;;;;;12.90;5.75;;;;;;;;;;5030785;28;20486;-67
2023/02/01 13:49:32;;;;;;;9.27;4.50;;;;;;;;;;5012396;28;20033;-67
2023/02/01 13:51:59;;;;;;;7.22;3.78;;;;;;;;;;5026252;28;20045;-67
2023/02/01 13:54:33;;;;;;;9.02;3.67;;;;;;;;;;5023448;28;20045;-64
2023/02/01 13:57:01;;;;;;;15.75;4.97;;;;;;;;;;5025271;28;20068;-66
2023/02/01 13:59:40;;;;;;;9.00;4.30;;;;;;;;;;5013265;28;20053;-65
2023/02/01 14:02:25;;;;;;;9.77;3.80;;;;;;;;;;5021501;28;20029;-66
2023/02/01 14:04:52;;;;;;;7.53;3.50;;;;;;;;;;5008557;28;20044;-66
2023/02/01 14:07:58;;;;;;;6.30;3.75;;;;;;;;;;4994897;28;20057;-64
2023/02/01 14:10:55;;;;;;;12.00;4.38;;;;;;;;;;4967541;28;20183;-65
2023/02/01 14:13:22;;;;;;;5.15;3.22;;;;;;;;;;4967222;28;20087;-66
2023/02/01 14:16:11;;;;;;;5.95;3.17;;;;;;;;;;4968636;28;20097;-65
2023/02/01 14:18:40;;;;;;;5.18;3.13;;;;;;;;;;4963776;28;20054;-65
2023/02/01 14:21:16;;;;;;;11.15;4.65;;;;;;;;;;4964913;28;20533;-65
2023/02/01 14:23:45;;;;;;;10.63;5.78;;;;;;;;;;4966917;28;20530;-67
2023/02/01 14:26:14;;;;;;;10.93;5.35;;;;;;;;;;4967813;28;20076;-67
2023/02/01 14:28:47;;;;;;;16.35;5.93;;;;;;;;;;4965307;28;20039;-67
2023/02/01 14:31:39;;;;;;;13.10;5.95;;;;;;;;;;4956886;28;20160;-66
2023/02/01 14:34:12;;;;;;;8.05;4.32;;;;;;;;;;4948896;28;20118;-66
2023/02/01 14:36:44;;;;;;;16.10;5.45;;;;;;;;;;4974072;28;20563;-65
2023/02/01 14:39:40;;;;;;;7.90;3.65;;;;;;;;;;5000687;28;20489;-66
2023/02/01 14:42:15;;;;;;;6.20;3.50;;;;;;;;;;4998513;28;20155;-65
2023/02/01 14:44:42;;;;;;;6.00;3.13;;;;;;;;;;5032051;28;20493;-65
2023/02/01 14:47:12;;;;;;;7.07;3.25;;;;;;;;;;5030875;28;20057;-66
2023/02/01 14:49:50;;;;;;;2.03;0.82;;;;;;;;;;5030383;28;20075;-65
2023/02/01 14:52:19;;;;;;;1.63;0.93;;;;;;;;;;5031229;28;20044;-66
2023/02/01 14:54:56;;;;;;;2.45;1.58;;;;;;;;;;5027488;28;20569;-66
2023/02/01 14:57:26;;;;;;;4.05;1.35;;;;;;;;;;5023948;28;20067;-66
2023/02/01 15:00:00;;;;;;;3.45;1.77;;;;;;;;;;5027301;28;20045;-65
2023/02/01 15:02:27;;;;;;;5.68;1.75;;;;;;;;;;5026467;28;20065;-65
2023/02/01 15:04:55;;;;;;;9.73;1.88;;;;;;;;;;5017979;28;20144;-64
2023/02/01 15:07:23;;;;;;;4.70;1.60;;;;;;;;;;5026951;28;20551;-66
2023/02/01 15:09:50;;;;;;;7.32;2.40;;;;;;;;;;5028009;28;20049;-64
2023/02/01 15:12:22;;;;;;;2.90;1.35;;;;;;;;;;5020013;28;20116;-63
2023/02/01 15:15:04;;;;;;;2.03;0.90;;;;;;;;;;5029325;28;20033;-64
2023/02/01 15:17:34;;;;;;;4.88;1.92;;;;;;;;;;5029455;28;20037;-62
2023/02/01 15:20:02;;;;;;;4.03;1.52;;;;;;;;;;5029399;28;20040;-66
2023/02/01 15:22:30;;;;;;;4.03;1.98;;;;;;;;;;5029244;28;20658;-66
2023/02/01 15:24:58;;;;;;;6.63;2.33;;;;;;;;;;5030346;28;20052;-66
2023/02/01 15:27:26;;;;;;;7.60;2.25;;;;;;;;;;5030949;28;20114;-66
2023/02/01 15:29:53;;;;;;;3.33;1.15;;;;;;;;;;5032348;28;20037;-64
2023/02/01 15:32:48;;;;;;;1.58;0.77;;;;;;;;;;5030771;28;20060;-65